Terminal Aerodrome Forecast
Issued by NWS

Home | Current Version | Previous Version | Text Only | Print | Product List | Glossary On
Versions: 1 2 3 4 5 6 7 8 9 10 11 12
000
FTUS42 TJSJ 311700
TAFNCM
TAF
TNCM 311727Z 3118/0118 06006KT P6SM VCSH SCT020
     FM312300 VRB06KT P6SM VCSH SCT018 SCT040
     FM011400 07010KT P6SM SCT022=

USA.gov is the U.S. government's official web portal to all federal, state and local government web resources and services.